sensor_id;sensor_type;location;lat;lon;timestamp;pressure;altitude;pressure_sealevel;temperature;humidity
69058;BME280;56128;37.534;-122.308;2023-09-08T00:02:16;101155.19;;;20.95;93.09
69058;BME280;56128;37.534;-122.308;2023-09-08T00:04:42;101156.53;;;20.90;94.97
69058;BME280;56128;37.534;-122.308;2023-09-08T00:07:09;101147.72;;;20.88;94.83
69058;BME280;56128;37.534;-122.308;2023-09-08T00:09:35;101153.19;;;20.80;95.07
69058;BME280;56128;37.534;-122.308;2023-09-08T00:12:01;101156.41;;;20.75;94.87
69058;BME280;56128;37.534;-122.308;2023-09-08T00:14:28;101157.94;;;20.70;96.25
69058;BME280;56128;37.534;-122.308;2023-09-08T00:16:54;101160.66;;;20.70;95.61
69058;BME280;56128;37.534;-122.308;2023-09-08T00:19:21;101161.84;;;20.67;97.70
69058;BME280;56128;37.534;-122.308;2023-09-08T00:21:47;101163.38;;;20.62;97.15
69058;BME280;56128;37.534;-122.308;2023-09-08T00:24:13;101166.13;;;20.53;96.58
69058;BME280;56128;37.534;-122.308;2023-09-08T00:26:39;101170.25;;;20.41;98.71
69058;BME280;56128;37.534;-122.308;2023-09-08T00:29:06;101169.22;;;20.42;99.61
69058;BME280;56128;37.534;-122.308;2023-09-08T00:31:32;101168.72;;;20.38;99.33
69058;BME280;56128;37.534;-122.308;2023-09-08T00:33:58;101167.53;;;20.24;99.84
69058;BME280;56128;37.534;-122.308;2023-09-08T00:36:24;101166.53;;;20.17;100.00
69058;BME280;56128;37.534;-122.308;2023-09-08T00:38:51;101173.66;;;20.10;100.00
69058;BME280;56128;37.534;-122.308;2023-09-08T00:41:17;101173.81;;;20.00;100.00
69058;BME280;56128;37.534;-122.308;2023-09-08T00:43:43;101168.38;;;19.92;100.00
69058;BME280;56128;37.534;-122.308;2023-09-08T00:46:09;101166.34;;;19.86;100.00
69058;BME280;56128;37.534;-122.308;2023-09-08T00:48:37;101167.53;;;19.83;100.00
69058;BME280;56128;37.534;-122.308;2023-09-08T00:51:03;101162.06;;;19.75;100.00
69058;BME280;56128;37.534;-122.308;2023-09-08T00:53:31;101163.56;;;19.61;100.00
69058;BME280;56128;37.534;-122.308;2023-09-08T00:55:58;101169.34;;;19.58;100.00
69058;BME280;56128;37.534;-122.308;2023-09-08T00:58:25;101166.41;;;19.51;100.00
69058;BME280;56128;37.534;-122.308;2023-09-08T01:00:51;101167.44;;;19.42;100.00
69058;BME280;56128;37.534;-122.308;2023-09-08T01:03:17;101171.16;;;19.33;100.00
69058;BME280;56128;37.534;-122.308;2023-09-08T01:05:44;101174.88;;;19.32;100.00
69058;BME280;56128;37.534;-122.308;2023-09-08T01:08:13;101173.28;;;19.21;100.00
69058;BME280;56128;37.534;-122.308;2023-09-08T01:10:41;101181.25;;;19.14;100.00
69058;BME280;56128;37.534;-122.308;2023-09-08T01:13:08;101173.59;;;19.09;100.00
69058;BME280;56128;37.534;-122.308;2023-09-08T01:15:34;101172.16;;;18.97;100.00
69058;BME280;56128;37.534;-122.308;2023-09-08T01:18:00;101169.41;;;18.89;100.00
69058;BME280;56128;37.534;-122.308;2023-09-08T01:20:30;101171.22;;;18.80;100.00
69058;BME280;56128;37.534;-122.308;2023-09-08T01:23:38;101183.34;;;18.68;100.00
69058;BME280;56128;37.534;-122.308;2023-09-08T01:26:16;101184.28;;;18.58;100.00
69058;BME280;56128;37.534;-122.308;2023-09-08T01:28:45;101182.22;;;18.52;100.00
69058;BME280;56128;37.534;-122.308;2023-09-08T01:31:15;101186.25;;;18.48;100.00
69058;BME280;56128;37.534;-122.308;2023-09-08T01:33:42;101185.88;;;18.43;100.00
69058;BME280;56128;37.534;-122.308;2023-09-08T01:36:08;101191.25;;;18.34;100.00
69058;BME280;56128;37.534;-122.308;2023-09-08T01:38:35;101196.44;;;18.28;100.00
69058;BME280;56128;37.534;-122.308;2023-09-08T01:41:01;101200.94;;;18.19;100.00
69058;BME280;56128;37.534;-122.308;2023-09-08T01:43:27;101212.78;;;18.18;100.00
69058;BME280;56128;37.534;-122.308;2023-09-08T01:45:54;101208.31;;;18.09;100.00
69058;BME280;56128;37.534;-122.308;2023-09-08T01:48:20;101212.97;;;17.98;100.00
69058;BME280;56128;37.534;-122.308;2023-09-08T01:50:47;101204.44;;;17.93;100.00
69058;BME280;56128;37.534;-122.308;2023-09-08T01:53:13;101204.72;;;17.90;100.00
69058;BME280;56128;37.534;-122.308;2023-09-08T01:55:39;101205.66;;;17.81;100.00
69058;BME280;56128;37.534;-122.308;2023-09-08T01:58:05;101199.97;;;17.74;100.00
69058;BME280;56128;37.534;-122.308;2023-09-08T02:00:32;101210.75;;;17.66;100.00
69058;BME280;56128;37.534;-122.308;2023-09-08T02:02:58;101214.91;;;17.60;100.00
69058;BME280;56128;37.534;-122.308;2023-09-08T02:05:24;101220.06;;;17.53;100.00
69058;BME280;56128;37.534;-122.308;2023-09-08T02:07:52;101223.53;;;17.46;100.00
69058;BME280;56128;37.534;-122.308;2023-09-08T02:10:18;101219.03;;;17.36;100.00
69058;BME280;56128;37.534;-122.308;2023-09-08T02:12:46;101217.78;;;17.31;100.00
69058;BME280;56128;37.534;-122.308;2023-09-08T02:15:12;101211.09;;;17.25;100.00
69058;BME280;56128;37.534;-122.308;2023-09-08T02:17:38;101214.41;;;17.19;100.00
69058;BME280;56128;37.534;-122.308;2023-09-08T02:20:05;101226.84;;;17.12;100.00
69058;BME280;56128;37.534;-122.308;2023-09-08T02:22:31;101223.88;;;17.05;100.00
69058;BME280;56128;37.534;-122.308;2023-09-08T02:24:57;101224.75;;;16.96;100.00
69058;BME280;56128;37.534;-122.308;2023-09-08T02:27:23;101220.06;;;16.88;100.00
69058;BME280;56128;37.534;-122.308;2023-09-08T02:29:50;101225.19;;;16.81;100.00
69058;BME280;56128;37.534;-122.308;2023-09-08T02:32:16;101222.66;;;16.70;100.00
69058;BME280;56128;37.534;-122.308;2023-09-08T02:34:42;101221.25;;;16.66;100.00
69058;BME280;56128;37.534;-122.308;2023-09-08T02:37:08;101221.13;;;16.58;100.00
69058;BME280;56128;37.534;-122.308;2023-09-08T02:39:35;101216.75;;;16.47;100.00
69058;BME280;56128;37.534;-122.308;2023-09-08T02:42:01;101221.31;;;16.36;100.00
69058;BME280;56128;37.534;-122.308;2023-09-08T02:44:27;101219.19;;;16.30;100.00
69058;BME280;56128;37.534;-122.308;2023-09-08T02:46:55;101229.56;;;16.25;100.00
69058;BME280;56128;37.534;-122.308;2023-09-08T02:49:21;101231.81;;;16.20;100.00
69058;BME280;56128;37.534;-122.308;2023-09-08T02:51:47;101238.66;;;16.14;100.00
69058;BME280;56128;37.534;-122.308;2023-09-08T02:54:13;101233.00;;;16.08;100.00
69058;BME280;56128;37.534;-122.308;2023-09-08T02:56:41;101246.59;;;16.06;100.00
69058;BME280;56128;37.534;-122.308;2023-09-08T02:59:08;101247.88;;;15.92;100.00
69058;BME280;56128;37.534;-122.308;2023-09-08T03:01:34;101246.47;;;15.88;100.00
69058;BME280;56128;37.534;-122.308;2023-09-08T03:04:00;101251.28;;;15.84;100.00
69058;BME280;56128;37.534;-122.308;2023-09-08T03:06:26;101256.81;;;15.83;100.00
69058;BME280;56128;37.534;-122.308;2023-09-08T03:08:52;101266.72;;;15.72;100.00
69058;BME280;56128;37.534;-122.308;2023-09-08T03:11:19;101267.53;;;15.63;100.00
69058;BME280;56128;37.534;-122.308;2023-09-08T03:13:45;101270.78;;;15.57;100.00
69058;BME280;56128;37.534;-122.308;2023-09-08T03:16:11;101280.44;;;15.50;100.00
69058;BME280;56128;37.534;-122.308;2023-09-08T03:18:38;101283.66;;;15.44;100.00
69058;BME280;56128;37.534;-122.308;2023-09-08T03:21:04;101281.78;;;15.34;100.00
69058;BME280;56128;37.534;-122.308;2023-09-08T03:23:40;101290.97;;;15.32;100.00
69058;BME280;56128;37.534;-122.308;2023-09-08T03:26:07;101290.69;;;15.25;100.00
69058;BME280;56128;37.534;-122.308;2023-09-08T03:28:37;101296.16;;;15.14;100.00
69058;BME280;56128;37.534;-122.308;2023-09-08T03:31:24;101289.31;;;15.09;100.00
69058;BME280;56128;37.534;-122.308;2023-09-08T03:33:51;101300.38;;;15.06;100.00
69058;BME280;56128;37.534;-122.308;2023-09-08T03:36:17;101303.72;;;14.99;100.00
69058;BME280;56128;37.534;-122.308;2023-09-08T03:38:44;101311.22;;;14.95;100.00
69058;BME280;56128;37.534;-122.308;2023-09-08T03:41:10;101308.22;;;14.88;100.00
69058;BME280;56128;37.534;-122.308;2023-09-08T03:43:36;101304.66;;;14.88;100.00
69058;BME280;56128;37.534;-122.308;2023-09-08T03:46:02;101311.44;;;14.82;100.00
69058;BME280;56128;37.534;-122.308;2023-09-08T03:48:29;101312.81;;;14.76;100.00
69058;BME280;56128;37.534;-122.308;2023-09-08T03:50:55;101321.69;;;14.67;100.00
69058;BME280;56128;37.534;-122.308;2023-09-08T03:53:21;101318.34;;;14.64;100.00
69058;BME280;56128;37.534;-122.308;2023-09-08T03:55:47;101320.00;;;14.55;100.00
69058;BME280;56128;37.534;-122.308;2023-09-08T03:58:13;101321.25;;;14.51;100.00
69058;BME280;56128;37.534;-122.308;2023-09-08T04:00:41;101320.16;;;14.42;100.00
69058;BME280;56128;37.534;-122.308;2023-09-08T04:03:08;101328.03;;;14.34;100.00
69058;BME280;56128;37.534;-122.308;2023-09-08T04:05:34;101329.41;;;14.28;100.00
69058;BME280;56128;37.534;-122.308;2023-09-08T04:08:00;101336.88;;;14.24;100.00
69058;BME280;56128;37.534;-122.308;2023-09-08T04:10:27;101327.59;;;14.17;100.00
69058;BME280;56128;37.534;-122.308;2023-09-08T04:12:53;101328.84;;;14.13;100.00
69058;BME280;56128;37.534;-122.308;2023-09-08T04:15:19;101334.81;;;14.05;100.00
69058;BME280;56128;37.534;-122.308;2023-09-08T04:17:45;101338.75;;;14.01;100.00
69058;BME280;56128;37.534;-122.308;2023-09-08T04:20:12;101341.94;;;13.95;100.00
69058;BME280;56128;37.534;-122.308;2023-09-08T04:22:40;101344.28;;;13.88;100.00
69058;BME280;56128;37.534;-122.308;2023-09-08T04:25:06;101345.41;;;13.86;100.00
69058;BME280;56128;37.534;-122.308;2023-09-08T04:27:33;101351.75;;;13.85;100.00
69058;BME280;56128;37.534;-122.308;2023-09-08T04:30:00;101345.00;;;13.79;100.00
69058;BME280;56128;37.534;-122.308;2023-09-08T04:32:27;101340.50;;;13.79;100.00
69058;BME280;56128;37.534;-122.308;2023-09-08T04:34:53;101346.13;;;13.76;100.00
69058;BME280;56128;37.534;-122.308;2023-09-08T04:37:19;101344.44;;;13.75;100.00
69058;BME280;56128;37.534;-122.308;2023-09-08T04:39:45;101342.09;;;13.71;100.00
69058;BME280;56128;37.534;-122.308;2023-09-08T04:42:12;101341.38;;;13.69;100.00
69058;BME280;56128;37.534;-122.308;2023-09-08T04:44:38;101337.22;;;13.64;100.00
69058;BME280;56128;37.534;-122.308;2023-09-08T04:47:05;101334.75;;;13.61;100.00
69058;BME280;56128;37.534;-122.308;2023-09-08T04:49:31;101337.56;;;13.60;100.00
69058;BME280;56128;37.534;-122.308;2023-09-08T04:51:57;101340.75;;;13.54;100.00
69058;BME280;56128;37.534;-122.308;2023-09-08T04:54:23;101341.00;;;13.51;100.00
69058;BME280;56128;37.534;-122.308;2023-09-08T04:56:53;101340.41;;;13.47;100.00
69058;BME280;56128;37.534;-122.308;2023-09-08T04:59:20;101349.91;;;13.40;100.00
69058;BME280;56128;37.534;-122.308;2023-09-08T05:01:49;101349.53;;;13.33;100.00
69058;BME280;56128;37.534;-122.308;2023-09-08T05:04:17;101351.59;;;13.29;100.00
69058;BME280;56128;37.534;-122.308;2023-09-08T05:06:44;101349.75;;;13.30;100.00
69058;BME280;56128;37.534;-122.308;2023-09-08T05:09:10;101357.81;;;13.30;100.00
69058;BME280;56128;37.534;-122.308;2023-09-08T05:11:36;101363.66;;;13.24;100.00
69058;BME280;56128;37.534;-122.308;2023-09-08T05:14:02;101354.00;;;13.21;100.00
69058;BME280;56128;37.534;-122.308;2023-09-08T05:16:29;101359.50;;;13.20;100.00
69058;BME280;56128;37.534;-122.308;2023-09-08T05:19:21;101348.53;;;13.11;100.00
69058;BME280;56128;37.534;-122.308;2023-09-08T05:21:50;101356.81;;;13.08;100.00
69058;BME280;56128;37.534;-122.308;2023-09-08T05:24:17;101354.84;;;12.99;100.00
69058;BME280;56128;37.534;-122.308;2023-09-08T05:26:43;101368.75;;;12.93;100.00
69058;BME280;56128;37.534;-122.308;2023-09-08T05:29:09;101365.56;;;12.88;100.00
69058;BME280;56128;37.534;-122.308;2023-09-08T05:31:35;101363.34;;;12.81;100.00
69058;BME280;56128;37.534;-122.308;2023-09-08T05:34:01;101365.28;;;12.79;100.00
69058;BME280;56128;37.534;-122.308;2023-09-08T05:36:28;101363.94;;;12.74;100.00
69058;BME280;56128;37.534;-122.308;2023-09-08T05:38:55;101360.72;;;12.69;100.00
69058;BME280;56128;37.534;-122.308;2023-09-08T05:41:22;101361.19;;;12.62;100.00
69058;BME280;56128;37.534;-122.308;2023-09-08T05:43:48;101357.88;;;12.59;100.00
69058;BME280;56128;37.534;-122.308;2023-09-08T05:46:14;101365.44;;;12.54;100.00
69058;BME280;56128;37.534;-122.308;2023-09-08T05:48:40;101362.13;;;12.50;100.00
69058;BME280;56128;37.534;-122.308;2023-09-08T05:51:06;101355.88;;;12.49;100.00
69058;BME280;56128;37.534;-122.308;2023-09-08T05:53:33;101359.53;;;12.48;100.00
69058;BME280;56128;37.534;-122.308;2023-09-08T05:56:01;101356.34;;;12.43;100.00
69058;BME280;56128;37.534;-122.308;2023-09-08T05:58:27;101362.06;;;12.39;100.00
69058;BME280;56128;37.534;-122.308;2023-09-08T06:00:54;101357.03;;;12.34;100.00
69058;BME280;56128;37.534;-122.308;2023-09-08T06:03:20;101355.66;;;12.28;100.00
69058;BME280;56128;37.534;-122.308;2023-09-08T06:05:46;101356.00;;;12.24;100.00
69058;BME280;56128;37.534;-122.308;2023-09-08T06:08:12;101356.00;;;12.24;100.00
69058;BME280;56128;37.534;-122.308;2023-09-08T06:10:39;101358.19;;;12.18;100.00
69058;BME280;56128;37.534;-122.308;2023-09-08T06:13:05;101354.75;;;12.16;100.00
69058;BME280;56128;37.534;-122.308;2023-09-08T06:15:31;101354.75;;;12.16;100.00
69058;BME280;56128;37.534;-122.308;2023-09-08T06:17:57;101351.53;;;12.11;100.00
69058;BME280;56128;37.534;-122.308;2023-09-08T06:20:23;101351.66;;;12.10;100.00
69058;BME280;56128;37.534;-122.308;2023-09-08T06:22:50;101348.09;;;12.09;100.00
69058;BME280;56128;37.534;-122.308;2023-09-08T06:25:16;101357.34;;;12.05;100.00
69058;BME280;56128;37.534;-122.308;2023-09-08T06:27:42;101361.84;;;12.05;100.00
69058;BME280;56128;37.534;-122.308;2023-09-08T06:30:09;101355.00;;;12.00;100.00
69058;BME280;56128;37.534;-122.308;2023-09-08T06:32:36;101362.50;;;11.95;100.00
69058;BME280;56128;37.534;-122.308;2023-09-08T06:35:02;101364.53;;;11.92;100.00
69058;BME280;56128;37.534;-122.308;2023-09-08T06:37:28;101365.41;;;11.92;100.00
69058;BME280;56128;37.534;-122.308;2023-09-08T06:39:55;101372.81;;;11.89;100.00
69058;BME280;56128;37.534;-122.308;2023-09-08T06:42:21;101367.78;;;11.84;100.00
69058;BME280;56128;37.534;-122.308;2023-09-08T06:44:47;101375.19;;;11.80;100.00
69058;BME280;56128;37.534;-122.308;2023-09-08T06:47:13;101374.47;;;11.78;100.00
69058;BME280;56128;37.534;-122.308;2023-09-08T06:49:40;101377.34;;;11.75;100.00
69058;BME280;56128;37.534;-122.308;2023-09-08T06:52:06;101380.25;;;11.72;100.00
69058;BME280;56128;37.534;-122.308;2023-09-08T06:54:33;101368.88;;;11.68;100.00
69058;BME280;56128;37.534;-122.308;2023-09-08T06:56:59;101361.69;;;11.69;100.00
69058;BME280;56128;37.534;-122.308;2023-09-08T06:59:25;101363.84;;;11.64;100.00
69058;BME280;56128;37.534;-122.308;2023-09-08T07:01:51;101365.56;;;11.65;100.00
69058;BME280;56128;37.534;-122.308;2023-09-08T07:04:17;101369.22;;;11.64;100.00
69058;BME280;56128;37.534;-122.308;2023-09-08T07:06:43;101368.69;;;11.59;100.00
69058;BME280;56128;37.534;-122.308;2023-09-08T07:09:12;101371.34;;;11.59;100.00
69058;BME280;56128;37.534;-122.308;2023-09-08T07:11:38;101366.97;;;11.58;100.00
69058;BME280;56128;37.534;-122.308;2023-09-08T07:14:05;101363.53;;;11.56;100.00
69058;BME280;56128;37.534;-122.308;2023-09-08T07:16:31;101363.88;;;11.51;100.00
69058;BME280;56128;37.534;-122.308;2023-09-08T07:18:57;101367.72;;;11.47;100.00
69058;BME280;56128;37.534;-122.308;2023-09-08T07:21:25;101372.44;;;11.43;100.00
69058;BME280;56128;37.534;-122.308;2023-09-08T07:23:51;101373.41;;;11.42;100.00
69058;BME280;56128;37.534;-122.308;2023-09-08T07:26:19;101380.69;;;11.40;100.00
69058;BME280;56128;37.534;-122.308;2023-09-08T07:28:46;101380.91;;;11.37;100.00
69058;BME280;56128;37.534;-122.308;2023-09-08T07:31:12;101380.91;;;11.37;100.00
69058;BME280;56128;37.534;-122.308;2023-09-08T07:33:38;101376.53;;;11.36;100.00
69058;BME280;56128;37.534;-122.308;2023-09-08T07:36:05;101373.31;;;11.31;100.00
69058;BME280;56128;37.534;-122.308;2023-09-08T07:38:31;101377.91;;;11.29;100.00
69058;BME280;56128;37.534;-122.308;2023-09-08T07:40:58;101373.50;;;11.28;100.00
69058;BME280;56128;37.534;-122.308;2023-09-08T07:43:27;101368.50;;;11.23;100.00
69058;BME280;56128;37.534;-122.308;2023-09-08T07:45:53;101360.53;;;11.21;100.00
69058;BME280;56128;37.534;-122.308;2023-09-08T07:48:19;101362.47;;;11.19;100.00
69058;BME280;56128;37.534;-122.308;2023-09-08T07:50:45;101361.94;;;11.14;100.00
69058;BME280;56128;37.534;-122.308;2023-09-08T07:53:12;101370.19;;;11.11;100.00
69058;BME280;56128;37.534;-122.308;2023-09-08T07:55:38;101367.72;;;11.08;100.00
69058;BME280;56128;37.534;-122.308;2023-09-08T07:58:04;101377.69;;;11.06;100.00
69058;BME280;56128;37.534;-122.308;2023-09-08T08:00:31;101368.22;;;11.00;100.00
69058;BME280;56128;37.534;-122.308;2023-09-08T08:02:58;101370.91;;;11.00;100.00
69058;BME280;56128;37.534;-122.308;2023-09-08T08:05:25;101370.28;;;10.97;100.00
69058;BME280;56128;37.534;-122.308;2023-09-08T08:07:51;101364.06;;;10.96;100.00
69058;BME280;56128;37.534;-122.308;2023-09-08T08:10:18;101368.44;;;10.97;100.00
69058;BME280;56128;37.534;-122.308;2023-09-08T08:12:44;101368.97;;;10.90;100.00
69058;BME280;56128;37.534;-122.308;2023-09-08T08:15:11;101377.84;;;10.90;100.00
69058;BME280;56128;37.534;-122.308;2023-09-08T08:17:38;101377.13;;;10.88;100.00
69058;BME280;56128;37.534;-122.308;2023-09-08T08:20:11;101373.56;;;10.87;100.00
69058;BME280;56128;37.534;-122.308;2023-09-08T08:22:43;101370.34;;;10.82;100.00
69058;BME280;56128;37.534;-122.308;2023-09-08T08:25:11;101376.66;;;10.81;100.00
69058;BME280;56128;37.534;-122.308;2023-09-08T08:27:39;101374.09;;;10.80;100.00
69058;BME280;56128;37.534;-122.308;2023-09-08T08:30:06;101372.25;;;10.80;100.00
69058;BME280;56128;37.534;-122.308;2023-09-08T08:32:33;101378.59;;;10.79;100.00
69058;BME280;56128;37.534;-122.308;2023-09-08T08:35:00;101372.66;;;10.74;100.00
69058;BME280;56128;37.534;-122.308;2023-09-08T08:37:26;101373.66;;;10.73;100.00
69058;BME280;56128;37.534;-122.308;2023-09-08T08:39:53;101371.06;;;10.71;100.00
69058;BME280;56128;37.534;-122.308;2023-09-08T08:42:19;101376.41;;;10.71;100.00
69058;BME280;56128;37.534;-122.308;2023-09-08T08:44:48;101381.03;;;10.69;100.00
69058;BME280;56128;37.534;-122.308;2023-09-08T08:47:16;101383.06;;;10.66;100.00
69058;BME280;56128;37.534;-122.308;2023-09-08T08:49:44;101375.97;;;10.65;100.00
69058;BME280;56128;37.534;-122.308;2023-09-08T08:52:15;101379.00;;;10.73;100.00
69058;BME280;56128;37.534;-122.308;2023-09-08T08:54:41;101374.41;;;10.75;100.00
69058;BME280;56128;37.534;-122.308;2023-09-08T08:57:08;101380.91;;;10.71;100.00
69058;BME280;56128;37.534;-122.308;2023-09-08T08:59:35;101364.88;;;10.71;100.00
69058;BME280;56128;37.534;-122.308;2023-09-08T09:02:03;101373.84;;;10.70;100.00
69058;BME280;56128;37.534;-122.308;2023-09-08T09:04:29;101377.41;;;10.70;100.00
69058;BME280;56128;37.534;-122.308;2023-09-08T09:06:57;101378.25;;;10.71;100.00
69058;BME280;56128;37.534;-122.308;2023-09-08T09:09:24;101375.97;;;10.65;100.00
69058;BME280;56128;37.534;-122.308;2023-09-08T09:11:51;101377.88;;;10.63;100.00
69058;BME280;56128;37.534;-122.308;2023-09-08T09:14:20;101374.47;;;10.61;100.00
69058;BME280;56128;37.534;-122.308;2023-09-08T09:16:49;101382.41;;;10.62;100.00
69058;BME280;56128;37.534;-122.308;2023-09-08T09:19:23;101376.38;;;10.59;100.00
69058;BME280;56128;37.534;-122.308;2023-09-08T09:21:58;101379.81;;;10.61;100.00
69058;BME280;56128;37.534;-122.308;2023-09-08T09:24:40;101376.38;;;10.59;100.00
69058;BME280;56128;37.534;-122.308;2023-09-08T09:27:10;101371.25;;;10.55;100.00
69058;BME280;56128;37.534;-122.308;2023-09-08T09:29:47;101381.19;;;10.53;100.00
69058;BME280;56128;37.534;-122.308;2023-09-08T09:32:15;101378.72;;;10.50;100.00
69058;BME280;56128;37.534;-122.308;2023-09-08T09:34:53;101385.16;;;10.48;100.00
69058;BME280;56128;37.534;-122.308;2023-09-08T09:37:20;101387.16;;;10.44;100.00
69058;BME280;56128;37.534;-122.308;2023-09-08T09:39:51;101382.53;;;10.46;100.00
69058;BME280;56128;37.534;-122.308;2023-09-08T09:42:18;101382.75;;;10.43;100.00
69058;BME280;56128;37.534;-122.308;2023-09-08T09:44:47;101367.88;;;10.39;100.00
69058;BME280;56128;37.534;-122.308;2023-09-08T09:47:14;101369.78;;;10.37;100.00
69058;BME280;56128;37.534;-122.308;2023-09-08T09:49:43;101375.03;;;10.38;100.00
69058;BME280;56128;37.534;-122.308;2023-09-08T09:52:12;101365.38;;;10.36;100.00
69058;BME280;56128;37.534;-122.308;2023-09-08T09:54:42;101371.50;;;10.38;100.00
69058;BME280;56128;37.534;-122.308;2023-09-08T09:57:13;101363.84;;;10.32;100.00
69058;BME280;56128;37.534;-122.308;2023-09-08T09:59:43;101365.56;;;10.33;100.00
69058;BME280;56128;37.534;-122.308;2023-09-08T10:02:14;101362.97;;;10.31;100.00
69058;BME280;56128;37.534;-122.308;2023-09-08T10:04:41;101358.59;;;10.30;100.00
69058;BME280;56128;37.534;-122.308;2023-09-08T10:07:08;101360.41;;;10.30;100.00
69058;BME280;56128;37.534;-122.308;2023-09-08T10:09:36;101364.03;;;10.29;100.00
69058;BME280;56128;37.534;-122.308;2023-09-08T10:12:05;101368.53;;;10.28;100.00
69058;BME280;56128;37.534;-122.308;2023-09-08T10:14:35;101374.06;;;10.25;100.00
69058;BME280;56128;37.534;-122.308;2023-09-08T10:17:05;101371.50;;;10.23;100.00
69058;BME280;56128;37.534;-122.308;2023-09-08T10:19:34;101374.84;;;10.27;100.00
69058;BME280;56128;37.534;-122.308;2023-09-08T10:22:11;101366.16;;;10.23;100.00
69058;BME280;56128;37.534;-122.308;2023-09-08T10:24:40;101372.38;;;10.24;100.00
69058;BME280;56128;37.534;-122.308;2023-09-08T10:27:11;101378.56;;;10.24;100.00
69058;BME280;56128;37.534;-122.308;2023-09-08T10:29:40;101367.03;;;10.24;100.00
69058;BME280;56128;37.534;-122.308;2023-09-08T10:32:08;101372.56;;;10.21;100.00
69058;BME280;56128;37.534;-122.308;2023-09-08T10:34:36;101377.25;;;10.17;100.00
69058;BME280;56128;37.534;-122.308;2023-09-08T10:37:03;101379.94;;;10.17;100.00
69058;BME280;56128;37.534;-122.308;2023-09-08T10:39:43;101373.63;;;10.18;100.00
69058;BME280;56128;37.534;-122.308;2023-09-08T10:47:14;101372.28;;;10.11;100.00
69058;BME280;56128;37.534;-122.308;2023-09-08T10:49:40;101368.13;;;10.07;100.00
69058;BME280;56128;37.534;-122.308;2023-09-08T10:52:11;101372.78;;;10.03;100.00
69058;BME280;56128;37.534;-122.308;2023-09-08T10:54:45;101379.97;;;10.03;100.00
69058;BME280;56128;37.534;-122.308;2023-09-08T10:57:14;101376.53;;;10.01;100.00
69058;BME280;56128;37.534;-122.308;2023-09-08T10:59:58;101377.59;;;9.98;100.00
69058;BME280;56128;37.534;-122.308;2023-09-08T11:05:03;101389.34;;;9.96;100.00
69058;BME280;56128;37.534;-122.308;2023-09-08T11:07:32;101385.81;;;9.95;100.00
69058;BME280;56128;37.534;-122.308;2023-09-08T11:09:59;101380.66;;;9.92;100.00
69058;BME280;56128;37.534;-122.308;2023-09-08T11:12:27;101382.53;;;9.90;100.00
69058;BME280;56128;37.534;-122.308;2023-09-08T11:14:54;101374.75;;;9.87;100.00
69058;BME280;56128;37.534;-122.308;2023-09-08T11:17:23;101380.28;;;9.84;100.00
69058;BME280;56128;37.534;-122.308;2023-09-08T11:19:51;101389.16;;;9.84;100.00
69058;BME280;56128;37.534;-122.308;2023-09-08T11:22:17;101388.38;;;9.82;100.00
69058;BME280;56128;37.534;-122.308;2023-09-08T11:24:44;101390.09;;;9.83;100.00
69058;BME280;56128;37.534;-122.308;2023-09-08T11:27:13;101382.28;;;9.80;100.00
69058;BME280;56128;37.534;-122.308;2023-09-08T11:29:40;101381.72;;;9.75;100.00
69058;BME280;56128;37.534;-122.308;2023-09-08T11:32:07;101380.97;;;9.73;100.00
69058;BME280;56128;37.534;-122.308;2023-09-08T11:34:37;101373.13;;;9.70;100.00
69058;BME280;56128;37.534;-122.308;2023-09-08T11:37:13;101374.09;;;9.69;100.00
69058;BME280;56128;37.534;-122.308;2023-09-08T11:39:42;101371.44;;;9.69;100.00
69058;BME280;56128;37.534;-122.308;2023-09-08T11:42:30;101375.06;;;9.68;100.00
69058;BME280;56128;37.534;-122.308;2023-09-08T11:44:57;101381.50;;;9.64;100.00
69058;BME280;56128;37.534;-122.308;2023-09-08T11:47:23;101378.94;;;9.62;100.00
69058;BME280;56128;37.534;-122.308;2023-09-08T11:49:52;101377.81;;;9.66;100.00
69058;BME280;56128;37.534;-122.308;2023-09-08T11:52:23;101375.06;;;9.68;100.00
69058;BME280;56128;37.534;-122.308;2023-09-08T11:54:50;101383.25;;;9.65;100.00
69058;BME280;56128;37.534;-122.308;2023-09-08T11:57:17;101388.88;;;9.74;100.00
69058;BME280;56128;37.534;-122.308;2023-09-08T11:59:44;101384.19;;;9.78;100.00
69058;BME280;56128;37.534;-122.308;2023-09-08T12:02:14;101390.88;;;9.71;100.00
69058;BME280;56128;37.534;-122.308;2023-09-08T12:04:40;101381.25;;;9.68;100.00
69058;BME280;56128;37.534;-122.308;2023-09-08T12:07:12;101380.41;;;9.68;100.00
69058;BME280;56128;37.534;-122.308;2023-09-08T12:09:41;101389.34;;;9.67;100.00
69058;BME280;56128;37.534;-122.308;2023-09-08T12:12:11;101384.00;;;9.67;100.00
69058;BME280;56128;37.534;-122.308;2023-09-08T12:14:41;101388.69;;;9.63;100.00
69058;BME280;56128;37.534;-122.308;2023-09-08T12:17:08;101390.69;;;9.59;100.00
69058;BME280;56128;37.534;-122.308;2023-09-08T12:19:34;101393.56;;;9.56;100.00
69058;BME280;56128;37.534;-122.308;2023-09-08T12:22:07;101399.84;;;9.55;100.00
69058;BME280;56128;37.534;-122.308;2023-09-08T12:24:47;101401.84;;;9.52;100.00